Otter Creek, New York
Current Conditions -  °F | °C
As of 10:58 AM on Friday 21 Nov 2014 (Local Time) from KGTB Reporting Station
Clear Clear  
Wind Chill: 11°   Ceiling: Unl
Heat Index: 20°   Visibility: 10mi
Dew Point:   Wind: 7mph
Humidity: 47%   Direction: 280°W
Pressure: 30.28"   Gusts: NA
Location:  43.7232°N, 75.2497°W
Report Text: KGTB 211558Z AUTO 28006KT 10SM CLR M07/M16 A3028 RMK AO2 SLP267 T10691165
Loading
Personal Weather Stations






























Interactive Weather Map New forecast layout! Learn more

10-Day Weather Forecast

Advertisements
Track Severe Weather on mobile